Time;durP1;ratioP1;P1;durP2;ratioP2;P2;SDS_P1;SDS_P2;PMS_P1;PMS_P2;Temp;Humidity;BMP_temperature;BMP_pressure;BME280_temperature;BME280_humidity;BME280_pressure;Samples;Min_cycle;Max_cycle;Signal;HPM_P1;HPM_P2
2023/06/02 00:00:40;;;;;;;5.70;5.27;;;;;;;21.44;54.06;94955.53;6217528;28;110125;-63
2023/06/02 00:03:44;;;;;;;6.00;5.50;;;;;;;21.44;53.81;94954.75;6235007;28;109863;-63
2023/06/02 00:06:50;;;;;;;6.30;5.80;;;;;;;21.42;54.01;94949.72;6225474;27;109299;-66
2023/06/02 00:09:53;;;;;;;6.27;5.77;;;;;;;21.43;53.99;94945.97;6223360;27;109005;-66
2023/06/02 00:12:57;;;;;;;6.10;5.60;;;;;;;21.43;53.75;94947.84;6216986;27;109319;-66
2023/06/02 00:16:02;;;;;;;6.10;5.60;;;;;;;21.43;53.54;94940.66;6236715;27;109007;-66
2023/06/02 00:19:07;;;;;;;6.30;5.40;;;;;;;21.42;54.31;94943.63;6237355;27;109072;-67
2023/06/02 00:22:13;;;;;;;6.10;5.60;;;;;;;21.41;54.13;94947.38;6233926;27;109195;-68
2023/06/02 00:25:17;;;;;;;6.40;5.90;;;;;;;21.41;53.83;94947.38;6226083;27;109022;-66
2023/06/02 00:28:21;;;;;;;5.73;5.23;;;;;;;21.39;53.88;94947.69;6229703;27;109016;-66
2023/06/02 00:31:24;;;;;;;6.20;5.60;;;;;;;21.40;53.59;94949.25;6229270;28;109277;-66
2023/06/02 00:34:27;;;;;;;5.93;5.43;;;;;;;21.41;53.37;94947.38;6224908;28;109046;-70
2023/06/02 00:37:32;;;;;;;5.50;5.10;;;;;;;21.42;53.69;94951.59;6224203;27;109360;-68
2023/06/02 00:40:36;;;;;;;5.93;5.40;;;;;;;21.41;54.05;94944.72;6234731;27;110876;-66
2023/06/02 00:43:39;;;;;;;5.90;5.40;;;;;;;21.40;54.15;94948.47;6233986;28;109847;-67
2023/06/02 00:46:42;;;;;;;5.70;5.30;;;;;;;21.40;53.45;94943.94;6218059;27;109277;-66
2023/06/02 00:49:46;;;;;;;5.93;5.33;;;;;;;21.36;53.33;94942.97;6230950;27;109183;-67
2023/06/02 00:52:55;;;;;;;5.80;5.40;;;;;;;21.39;53.81;94941.56;6233573;27;108987;-67
2023/06/02 00:55:59;;;;;;;6.50;6.00;;;;;;;21.40;53.60;94951.13;6229352;28;109784;-66
2023/06/02 00:59:03;;;;;;;5.73;5.33;;;;;;;21.38;53.61;94940.78;6223872;27;109129;-67
2023/06/02 01:02:07;;;;;;;5.87;5.40;;;;;;;21.38;53.13;94934.69;6233949;27;109087;-67
2023/06/02 01:05:12;;;;;;;6.27;5.77;;;;;;;21.37;53.72;94933.91;6231954;27;109032;-67
2023/06/02 01:08:17;;;;;;;5.77;5.23;;;;;;;21.37;53.83;94928.56;6224533;27;109768;-67
2023/06/02 01:11:21;;;;;;;6.17;5.67;;;;;;;21.37;53.58;94933.91;6224383;28;111773;-67
2023/06/02 01:14:25;;;;;;;6.17;5.70;;;;;;;21.36;53.42;94931.53;6234143;27;109042;-69
2023/06/02 01:17:35;;;;;;;6.73;6.13;;;;;;;21.36;53.23;94927.00;6236423;27;109341;-70
2023/06/02 01:20:49;;;;;;;5.50;5.10;;;;;;;21.32;53.22;94926.00;6224596;27;112356;-69
2023/06/02 01:23:57;;;;;;;8.50;5.60;;;;;;;21.36;52.91;94931.53;6231552;27;109185;-69
2023/06/02 01:27:00;;;;;;;6.50;5.90;;;;;;;21.34;52.78;94915.88;6229625;27;109452;-69
2023/06/02 01:30:04;;;;;;;9.70;6.53;;;;;;;21.33;53.30;94927.56;6230812;27;111858;-68
2023/06/02 01:33:13;;;;;;;6.33;5.87;;;;;;;21.30;53.21;94922.88;6211422;27;109420;-73
2023/06/02 01:36:21;;;;;;;6.10;5.57;;;;;;;21.32;53.10;94915.38;6235837;28;110133;-69
2023/06/02 01:39:28;;;;;;;5.67;5.17;;;;;;;21.32;53.26;94920.69;6232454;27;108735;-69
2023/06/02 01:42:33;;;;;;;6.00;5.50;;;;;;;21.29;53.24;94925.84;6231840;28;111053;-69
2023/06/02 01:45:38;;;;;;;6.40;5.80;;;;;;;21.30;52.83;94919.41;6230318;27;109210;-68
2023/06/02 01:48:41;;;;;;;5.93;5.43;;;;;;;21.26;53.17;94911.25;6223903;28;108979;-69
2023/06/02 01:51:44;;;;;;;6.53;5.93;;;;;;;21.27;52.57;94915.50;6233589;28;108953;-70
2023/06/02 01:54:50;;;;;;;6.03;5.60;;;;;;;21.25;53.06;94907.03;6225886;27;109094;-69
2023/06/02 01:57:53;;;;;;;6.63;6.13;;;;;;;21.26;52.97;94907.81;6233145;27;108882;-69
2023/06/02 02:00:57;;;;;;;5.80;5.40;;;;;;;21.26;53.21;94911.25;6230594;27;108997;-69
2023/06/02 02:04:00;;;;;;;6.90;6.30;;;;;;;21.24;52.77;94908.13;6230503;27;109312;-70
2023/06/02 02:07:03;;;;;;;6.70;6.10;;;;;;;21.24;53.01;94907.34;6217861;28;109542;-69
2023/06/02 02:10:09;;;;;;;7.40;6.70;;;;;;;21.19;52.97;94895.72;6227063;27;108951;-69
2023/06/02 02:13:12;;;;;;;6.90;5.90;;;;;;;21.19;52.73;94900.28;6232489;27;109058;-69
2023/06/02 02:16:15;;;;;;;6.53;5.93;;;;;;;21.22;52.73;94910.31;6230394;28;108999;-68
2023/06/02 02:19:22;;;;;;;6.60;6.07;;;;;;;21.22;52.76;94912.97;6218540;27;110804;-69
2023/06/02 02:22:25;;;;;;;6.40;5.80;;;;;;;21.19;52.93;94901.06;6233214;27;109009;-70
2023/06/02 02:25:30;;;;;;;6.77;6.17;;;;;;;21.19;52.71;94905.59;6232919;28;109146;-67
2023/06/02 02:28:33;;;;;;;6.77;6.27;;;;;;;21.16;53.10;94906.97;6213583;27;109857;-67
2023/06/02 02:31:36;;;;;;;7.23;6.30;;;;;;;21.17;53.17;94907.75;6231665;28;109373;-66
2023/06/02 02:34:39;;;;;;;7.63;6.77;;;;;;;21.16;52.85;94901.63;6236491;27;108778;-66
2023/06/02 02:37:46;;;;;;;7.07;6.57;;;;;;;21.16;53.08;94900.84;6230904;28;108904;-67
2023/06/02 02:40:51;;;;;;;7.07;6.57;;;;;;;21.17;53.11;94903.22;6226492;27;109466;-67
2023/06/02 02:43:54;;;;;;;6.90;6.30;;;;;;;21.19;53.00;94905.59;6238585;27;109631;-66
2023/06/02 02:46:58;;;;;;;6.73;6.23;;;;;;;21.19;52.77;94900.28;6235378;27;109017;-67
2023/06/02 02:50:02;;;;;;;7.60;7.00;;;;;;;21.17;53.43;94899.75;6228855;27;109245;-66
2023/06/02 02:53:05;;;;;;;7.17;6.67;;;;;;;21.24;52.77;94902.00;6220538;27;109027;-69
2023/06/02 02:56:10;;;;;;;8.00;7.40;;;;;;;21.19;53.04;94889.63;6238499;27;109004;-67
2023/06/02 02:59:15;;;;;;;8.23;7.50;;;;;;;21.22;52.98;94894.34;6239993;27;111941;-66
2023/06/02 03:02:18;;;;;;;7.67;6.93;;;;;;;21.19;53.02;94901.06;6227490;27;109103;-65
2023/06/02 03:05:21;;;;;;;7.47;6.77;;;;;;;21.19;53.49;94897.59;6237167;27;109654;-66
2023/06/02 03:08:25;;;;;;;7.50;6.90;;;;;;;21.16;53.23;94892.88;6230167;27;108687;-67
2023/06/02 03:11:29;;;;;;;7.90;7.20;;;;;;;21.07;53.32;94900.81;6231555;28;109030;-66
2023/06/02 03:14:32;;;;;;;9.00;7.77;;;;;;;20.98;53.68;94901.78;6229410;27;109323;-66
2023/06/02 03:17:37;;;;;;;9.63;8.43;;;;;;;21.08;53.24;94912.22;6231250;27;109014;-66
2023/06/02 03:20:41;;;;;;;8.10;7.30;;;;;;;21.03;53.12;94912.34;6237119;28;109301;-66
2023/06/02 03:23:44;;;;;;;9.23;7.97;;;;;;;21.11;53.29;94903.66;6238675;27;110082;-72
2023/06/02 03:26:51;;;;;;;16.80;15.27;;;;;;;21.25;54.29;94907.03;6219513;27;108992;-73
2023/06/02 03:29:56;;;;;;;16.50;12.97;;;;;;;21.30;54.29;94903.44;6229448;27;109888;-70
2023/06/02 03:32:59;;;;;;;14.40;10.73;;;;;;;21.40;54.70;94911.19;6228463;27;109396;-72
2023/06/02 03:36:02;;;;;;;13.13;10.63;;;;;;;21.42;55.22;94909.81;6233391;27;108776;-69
2023/06/02 03:39:07;;;;;;;15.17;10.67;;;;;;;21.52;55.28;94909.56;6231254;27;109274;-67
2023/06/02 03:42:12;;;;;;;13.07;9.37;;;;;;;21.59;55.15;94916.31;6244428;27;109032;-68
2023/06/02 03:45:15;;;;;;;12.33;8.50;;;;;;;21.67;55.01;94910.22;6236357;27;109031;-68
2023/06/02 03:48:18;;;;;;;10.97;9.00;;;;;;;21.69;54.83;94908.06;6224019;27;109737;-68
2023/06/02 03:51:21;;;;;;;14.10;8.70;;;;;;;21.70;55.12;94909.66;6236855;27;108921;-68
2023/06/02 03:54:25;;;;;;;11.80;8.70;;;;;;;21.72;54.63;94902.13;6238658;27;109017;-71
2023/06/02 03:57:29;;;;;;;13.23;8.90;;;;;;;21.69;54.55;94902.75;6237736;27;108996;-68
2023/06/02 04:00:32;;;;;;;13.53;8.40;;;;;;;21.76;54.69;94898.53;6225040;27;109704;-68
2023/06/02 04:03:37;;;;;;;17.10;9.47;;;;;;;21.83;54.18;94895.47;6237869;27;109030;-71
2023/06/02 04:06:41;;;;;;;27.23;10.23;;;;;;;21.85;54.07;94895.97;6238167;27;109019;-69
2023/06/02 04:09:45;;;;;;;14.63;8.43;;;;;;;21.44;52.63;94888.97;6227347;27;109173;-67
2023/06/02 04:12:49;;;;;;;19.10;8.40;;;;;;;21.11;53.21;94887.69;6222894;27;109377;-69
2023/06/02 04:15:52;;;;;;;36.27;11.20;;;;;;;21.23;54.73;94898.56;6224701;28;112060;-69
2023/06/02 04:18:55;;;;;;;27.10;9.90;;;;;;;21.56;53.87;94888.44;6217913;27;109015;-67
2023/06/02 04:21:58;;;;;;;24.40;10.10;;;;;;;21.56;53.79;94892.97;6203829;28;109427;-68
2023/06/02 04:25:02;;;;;;;17.03;8.23;;;;;;;21.62;53.35;94900.50;6212198;28;108988;-68
2023/06/02 04:28:07;;;;;;;11.93;7.33;;;;;;;21.37;53.48;94896.63;6213445;28;108905;-68
2023/06/02 04:31:11;;;;;;;8.80;7.90;;;;;;;21.46;52.79;94892.13;6213387;28;109012;-68
2023/06/02 04:34:14;;;;;;;10.10;7.30;;;;;;;21.19;52.34;94894.94;6203400;28;109788;-68
2023/06/02 04:37:17;;;;;;;9.27;7.60;;;;;;;20.78;53.18;94884.44;6212966;28;109749;-71
2023/06/02 04:40:20;;;;;;;11.63;8.23;;;;;;;20.53;53.58;94881.25;6212685;28;109008;-68
2023/06/02 04:43:25;;;;;;;8.50;7.70;;;;;;;20.28;54.27;94882.56;6213203;28;110330;-68
2023/06/02 04:46:28;;;;;;;9.57;8.30;;;;;;;20.37;54.14;94885.34;6201934;28;109267;-73
2023/06/02 04:49:31;;;;;;;8.67;7.87;;;;;;;20.42;54.32;94897.72;6213141;28;110330;-72
2023/06/02 04:52:35;;;;;;;10.33;9.43;;;;;;;20.52;54.18;94894.84;6212679;28;109002;-72
2023/06/02 04:55:38;;;;;;;8.13;7.43;;;;;;;20.40;54.03;94898.00;6207532;28;109042;-72
2023/06/02 04:58:42;;;;;;;9.17;8.37;;;;;;;20.38;53.97;94891.44;6207297;28;109150;-71
2023/06/02 05:01:45;;;;;;;10.33;9.10;;;;;;;20.57;53.82;94890.19;6212736;28;108819;-71
2023/06/02 05:04:49;;;;;;;9.07;8.27;;;;;;;20.78;53.41;94901.16;6212271;28;109371;-72
2023/06/02 05:07:52;;;;;;;8.23;7.53;;;;;;;20.88;53.24;94910.81;6201673;28;108969;-72
2023/06/02 05:10:55;;;;;;;10.50;9.67;;;;;;;20.98;52.70;94910.56;6212705;28;108782;-71
2023/06/02 05:13:59;;;;;;;10.57;9.67;;;;;;;21.03;53.12;94907.78;6212976;28;111738;-71
2023/06/02 05:17:04;;;;;;;14.13;12.83;;;;;;;20.85;53.76;94906.88;6216181;28;109041;-71
2023/06/02 05:20:08;;;;;;;12.30;11.20;;;;;;;20.86;54.03;94907.66;6226240;27;108964;-72
2023/06/02 05:23:11;;;;;;;9.13;8.33;;;;;;;21.03;53.27;94909.66;6237340;27;108969;-72
2023/06/02 05:26:15;;;;;;;10.00;9.20;;;;;;;21.14;53.47;94914.47;6237079;27;108990;-72
2023/06/02 05:29:19;;;;;;;11.23;9.93;;;;;;;21.23;52.91;94911.88;6236219;27;109305;-68
2023/06/02 05:32:24;;;;;;;10.53;9.50;;;;;;;21.30;52.99;94909.56;6229166;27;108961;-71
2023/06/02 05:35:27;;;;;;;10.80;9.80;;;;;;;21.36;52.81;94903.03;6236885;27;108981;-71
2023/06/02 05:38:30;;;;;;;10.33;9.40;;;;;;;21.41;52.98;94905.56;6236784;27;109004;-72
2023/06/02 05:41:33;;;;;;;10.30;9.40;;;;;;;21.50;52.92;94895.75;6227233;27;111430;-70
2023/06/02 05:44:38;;;;;;;10.53;8.43;;;;;;;21.51;53.17;94908.00;6236403;27;109116;-71
2023/06/02 05:47:41;;;;;;;10.03;9.03;;;;;;;21.51;53.62;94913.31;6236357;27;109101;-71
2023/06/02 05:50:44;;;;;;;11.40;8.43;;;;;;;21.57;53.79;94915.84;6237200;27;111806;-71
2023/06/02 05:53:49;;;;;;;9.30;8.40;;;;;;;21.59;53.42;94916.31;6226926;27;109818;-72
2023/06/02 05:56:54;;;;;;;9.63;8.70;;;;;;;21.54;53.11;94916.44;6236329;27;109337;-68
2023/06/02 05:59:58;;;;;;;9.17;8.20;;;;;;;21.64;52.94;94906.31;6236354;27;108998;-68
2023/06/02 06:03:02;;;;;;;10.03;8.90;;;;;;;21.71;53.02;94908.56;6236565;27;109112;-67
2023/06/02 06:06:05;;;;;;;9.43;8.63;;;;;;;21.76;53.05;94911.06;6226913;27;109262;-70
2023/06/02 06:09:09;;;;;;;10.17;8.93;;;;;;;21.77;53.41;94912.66;6236409;27;109009;-68
2023/06/02 06:12:12;;;;;;;10.57;9.67;;;;;;;21.76;53.02;94908.41;6236657;27;108817;-67
2023/06/02 06:15:17;;;;;;;11.90;9.50;;;;;;;21.82;53.14;94912.53;6235157;27;109314;-68
2023/06/02 06:18:20;;;;;;;10.20;9.30;;;;;;;21.84;53.45;94913.00;6234948;27;109027;-67
2023/06/02 06:21:24;;;;;;;9.93;8.90;;;;;;;21.88;53.31;94914.00;6240752;27;109013;-67
2023/06/02 06:24:27;;;;;;;9.97;9.07;;;;;;;21.90;53.62;94914.47;6240642;27;109001;-69
2023/06/02 06:27:30;;;;;;;11.20;10.10;;;;;;;21.92;54.00;94914.94;6229759;27;109028;-67
2023/06/02 06:30:35;;;;;;;9.93;8.93;;;;;;;21.98;54.13;94920.91;6240517;27;110080;-67
2023/06/02 06:33:38;;;;;;;12.83;11.67;;;;;;;22.02;53.91;94917.34;6241091;27;109559;-68
2023/06/02 06:36:41;;;;;;;14.23;13.03;;;;;;;22.04;53.96;94922.38;6240054;27;108982;-68
2023/06/02 06:39:44;;;;;;;15.13;13.93;;;;;;;22.08;53.99;94917.97;6230224;27;109109;-68
2023/06/02 06:42:47;;;;;;;14.30;12.90;;;;;;;22.09;53.88;94912.34;6240088;27;109478;-67
2023/06/02 06:45:52;;;;;;;14.07;12.87;;;;;;;22.10;53.54;94913.13;6240016;27;109185;-67
2023/06/02 06:48:55;;;;;;;12.77;11.57;;;;;;;22.16;53.78;94921.75;6238072;27;109088;-67
2023/06/02 06:51:59;;;;;;;12.07;10.93;;;;;;;22.22;53.21;94921.31;6233047;27;110292;-68
2023/06/02 06:55:02;;;;;;;10.87;9.77;;;;;;;22.34;53.39;94915.38;6239669;27;108940;-67
2023/06/02 06:58:05;;;;;;;10.43;9.43;;;;;;;22.33;53.07;94911.13;6239887;27;109333;-67
2023/06/02 07:01:10;;;;;;;9.83;9.00;;;;;;;22.37;53.00;94912.91;6230061;27;109603;-68
2023/06/02 07:04:13;;;;;;;10.10;8.37;;;;;;;22.40;53.44;94909.59;6239923;27;109005;-68
2023/06/02 07:07:16;;;;;;;8.60;7.80;;;;;;;22.30;52.87;94909.88;6240110;27;109045;-72
2023/06/02 07:10:20;;;;;;;8.80;7.90;;;;;;;22.35;52.93;94907.09;6240234;27;109487;-72
2023/06/02 07:13:27;;;;;;;8.40;7.70;;;;;;;22.28;52.75;94904.09;6229361;28;109425;-71
2023/06/02 07:16:31;;;;;;;8.70;7.90;;;;;;;22.32;52.66;94909.56;6239758;27;109015;-72
2023/06/02 07:19:35;;;;;;;9.63;8.83;;;;;;;22.26;52.85;94911.59;6240042;27;109349;-69
2023/06/02 07:22:38;;;;;;;10.43;8.67;;;;;;;22.36;52.30;94908.66;6239694;27;109320;-68
2023/06/02 07:25:41;;;;;;;9.90;9.00;;;;;;;22.45;52.66;94914.00;6228377;27;109087;-68
2023/06/02 07:28:44;;;;;;;11.60;9.20;;;;;;;22.49;52.10;94924.81;6239137;27;108973;-68
2023/06/02 07:31:49;;;;;;;21.80;12.33;;;;;;;22.47;52.43;94927.03;6239613;27;108989;-68
2023/06/02 07:34:52;;;;;;;23.37;14.90;;;;;;;22.29;52.24;94923.53;6233906;27;109200;-68
2023/06/02 07:37:55;;;;;;;19.33;12.40;;;;;;;22.20;51.94;94928.84;6233821;27;108976;-68
2023/06/02 07:41:00;;;;;;;19.97;12.40;;;;;;;22.24;51.85;94918.34;6238591;27;108785;-69
2023/06/02 07:44:03;;;;;;;16.93;12.20;;;;;;;22.28;51.69;94924.63;6239391;27;111401;-68
2023/06/02 07:47:10;;;;;;;15.93;11.87;;;;;;;22.30;51.79;94925.88;6228026;27;109820;-68
2023/06/02 07:50:13;;;;;;;13.43;11.70;;;;;;;22.29;52.37;94916.31;6238724;27;109143;-69
2023/06/02 07:53:16;;;;;;;18.33;11.50;;;;;;;22.29;51.72;94926.19;6238547;27;108971;-81
2023/06/02 07:56:20;;;;;;;161.37;100.10;;;;;;;22.07;52.29;94925.19;6238332;27;108997;-69
2023/06/02 07:59:23;;;;;;;72.13;45.03;;;;;;;22.00;52.19;94929.38;6227181;27;109591;-64
2023/06/02 08:02:28;;;;;;;86.33;53.93;;;;;;;22.05;52.76;94927.38;6238523;27;109126;-64
2023/06/02 08:05:31;;;;;;;77.40;47.13;;;;;;;22.15;52.47;94928.19;6238423;27;109071;-64
2023/06/02 08:08:34;;;;;;;67.63;42.80;;;;;;;22.21;52.55;94925.09;6234506;27;109672;-64
2023/06/02 08:11:37;;;;;;;59.33;39.33;;;;;;;22.24;52.19;94921.00;6233361;27;109161;-64
2023/06/02 08:14:41;;;;;;;54.50;38.00;;;;;;;22.29;52.71;94921.66;6238349;27;109221;-63
2023/06/02 08:17:48;;;;;;;59.57;38.00;;;;;;;22.29;52.56;94910.97;6238320;27;109237;-64
2023/06/02 08:20:51;;;;;;;54.97;35.90;;;;;;;22.31;52.54;94905.34;6227365;27;109055;-64
2023/06/02 08:23:54;;;;;;;51.70;35.03;;;;;;;22.33;52.38;94903.16;6238458;28;109075;-62
2023/06/02 08:27:00;;;;;;;51.00;32.17;;;;;;;22.36;52.53;94892.66;6237866;27;109132;-64
2023/06/02 08:30:04;;;;;;;43.20;29.97;;;;;;;22.40;52.77;94885.63;6237870;27;109390;-64
2023/06/02 08:33:08;;;;;;;40.57;28.13;;;;;;;22.47;52.78;94890.47;6227733;28;109118;-64
2023/06/02 08:36:17;;;;;;;44.53;29.87;;;;;;;22.52;52.80;94892.22;6237909;27;109044;-64
2023/06/02 08:39:21;;;;;;;40.53;28.20;;;;;;;22.56;52.77;94882.50;6237327;27;109322;-63
2023/06/02 08:42:27;;;;;;;33.67;24.70;;;;;;;22.54;52.53;94872.16;6237655;27;109238;-64
2023/06/02 08:45:30;;;;;;;31.33;24.10;;;;;;;22.54;52.85;94874.81;6228061;27;108911;-63
2023/06/02 08:48:36;;;;;;;28.60;21.50;;;;;;;22.49;52.44;94874.16;6237548;27;109287;-64
2023/06/02 08:51:40;;;;;;;27.20;20.67;;;;;;;22.45;53.31;94871.34;6237718;27;109032;-64
2023/06/02 08:54:45;;;;;;;19.93;17.70;;;;;;;22.35;52.88;94853.00;6227601;27;109156;-64
2023/06/02 08:57:48;;;;;;;18.63;16.13;;;;;;;22.32;52.80;94857.03;6236221;27;108862;-64
2023/06/02 09:00:51;;;;;;;15.50;13.10;;;;;;;22.35;52.92;94861.00;6237777;27;110000;-64
2023/06/02 09:03:55;;;;;;;14.07;12.63;;;;;;;22.31;52.06;94854.69;6237811;27;110090;-64
2023/06/02 09:07:16;;;;;;;12.67;10.87;;;;;;;22.31;51.79;94858.13;6227037;27;109673;-64
2023/06/02 09:10:30;;;;;;;11.93;10.70;;;;;;;22.33;51.84;94839.94;6237251;27;109149;-63
2023/06/02 09:13:36;;;;;;;11.30;10.20;;;;;;;22.34;51.76;94846.06;6237359;27;109047;-63
2023/06/02 09:16:42;;;;;;;11.50;10.20;;;;;;;22.34;51.94;94848.72;6229688;27;109002;-64
2023/06/02 09:19:51;;;;;;;10.53;9.53;;;;;;;22.33;51.29;94841.81;6231263;27;109856;-64
2023/06/02 09:22:55;;;;;;;10.20;9.37;;;;;;;22.34;51.70;94843.41;6237624;27;109047;-64
2023/06/02 09:25:58;;;;;;;11.30;10.10;;;;;;;22.34;51.48;94835.41;6237072;27;109018;-64
2023/06/02 09:29:13;;;;;;;11.60;10.47;;;;;;;22.34;52.17;94838.06;6226063;27;109017;-73
2023/06/02 09:32:18;;;;;;;11.30;10.20;;;;;;;22.33;52.31;94831.16;6237089;28;110099;-63
2023/06/02 09:35:40;;;;;;;10.00;9.00;;;;;;;22.38;51.91;94829.16;6236993;27;110041;-63
2023/06/02 09:38:44;;;;;;;9.90;8.90;;;;;;;22.42;51.63;94827.41;6237279;27;109158;-64
2023/06/02 09:41:48;;;;;;;9.23;8.53;;;;;;;22.47;52.47;94823.81;6225910;27;109181;-63
2023/06/02 09:45:04;;;;;;;8.90;8.20;;;;;;;22.51;52.15;94824.75;6236560;27;108967;-64
2023/06/02 09:48:18;;;;;;;10.27;9.23;;;;;;;22.51;52.22;94819.41;6235849;27;108998;-64
2023/06/02 09:51:24;;;;;;;10.23;9.07;;;;;;;22.51;52.07;94814.09;6229899;27;109324;-64
2023/06/02 09:54:28;;;;;;;10.10;9.10;;;;;;;22.52;51.72;94806.91;6235810;27;109036;-64
2023/06/02 09:57:31;;;;;;;12.90;9.00;;;;;;;22.53;51.66;94811.91;6236333;27;109140;-63
2023/06/02 10:00:36;;;;;;;9.70;8.80;;;;;;;22.55;52.18;94811.59;6237457;28;108676;-65
2023/06/02 10:03:42;;;;;;;9.83;8.83;;;;;;;22.54;52.17;94810.81;6226845;28;108989;-63
2023/06/02 10:07:06;;;;;;;9.77;8.87;;;;;;;22.57;51.68;94804.09;6236988;28;110312;-63
2023/06/02 10:10:26;;;;;;;9.60;8.80;;;;;;;22.58;52.37;94801.09;6236504;27;108991;-63
2023/06/02 10:13:50;;;;;;;11.00;8.63;;;;;;;22.60;51.62;94795.47;6232773;27;109287;-64
2023/06/02 10:17:11;;;;;;;9.33;8.53;;;;;;;22.63;51.86;94798.28;6231452;27;108994;-63
2023/06/02 10:20:26;;;;;;;9.20;8.40;;;;;;;22.67;51.21;94787.75;6236496;27;109113;-64
2023/06/02 10:23:46;;;;;;;10.00;7.50;;;;;;;22.70;50.83;94787.16;6236338;27;109983;-64
2023/06/02 10:27:03;;;;;;;9.30;7.37;;;;;;;22.69;50.02;94782.91;6225567;27;109269;-64
2023/06/02 10:30:08;;;;;;;7.80;7.07;;;;;;;22.67;50.30;94777.88;6236089;27;108939;-66
2023/06/02 10:33:11;;;;;;;7.50;6.80;;;;;;;22.69;49.33;94780.25;6236421;27;110182;-63
2023/06/02 10:36:17;;;;;;;8.47;7.77;;;;;;;22.68;49.80;94768.78;6231704;27;109913;-66
2023/06/02 10:39:47;;;;;;;7.80;7.00;;;;;;;22.69;49.68;94770.34;6230796;27;110074;-69
2023/06/02 10:43:10;;;;;;;8.20;6.63;;;;;;;22.66;49.39;94767.50;6236320;27;109552;-69
2023/06/02 10:46:18;;;;;;;7.30;6.67;;;;;;;22.65;48.62;94766.72;6235674;27;109014;-69
2023/06/02 10:49:52;;;;;;;7.03;6.50;;;;;;;22.62;48.60;94762.03;6225124;27;108969;-68
2023/06/02 10:53:09;;;;;;;7.07;6.47;;;;;;;22.60;47.88;94758.91;6229368;27;109090;-69
2023/06/02 10:56:42;;;;;;;6.13;5.63;;;;;;;22.58;46.94;94763.78;6235591;27;109549;-78
2023/06/02 10:59:45;;;;;;;6.47;5.90;;;;;;;22.56;46.94;94765.16;6225682;27;109229;-70
2023/06/02 11:02:48;;;;;;;6.33;5.73;;;;;;;22.54;46.77;94760.16;6239022;27;109015;-70
2023/06/02 11:05:54;;;;;;;6.67;6.07;;;;;;;22.56;45.77;94762.50;6240058;27;110135;-67
2023/06/02 11:09:32;;;;;;;6.27;5.47;;;;;;;22.56;45.46;94754.50;6240175;27;109967;-69
2023/06/02 11:13:07;;;;;;;6.47;5.87;;;;;;;22.54;46.13;94756.69;6228570;27;109421;-70
2023/06/02 11:16:16;;;;;;;5.73;5.23;;;;;;;22.53;46.10;94753.25;6239749;27;109026;-69
2023/06/02 11:19:50;;;;;;;6.50;4.90;;;;;;;22.53;45.30;94755.13;6239471;27;109002;-69
2023/06/02 11:23:03;;;;;;;5.70;5.27;;;;;;;22.55;45.49;94747.59;6229650;27;109925;-68
2023/06/02 11:26:08;;;;;;;6.57;5.50;;;;;;;22.54;46.13;94746.81;6239653;27;109557;-68
2023/06/02 11:29:17;;;;;;;6.23;5.73;;;;;;;22.54;44.75;94741.47;6239686;27;108936;-69
2023/06/02 11:32:20;;;;;;;5.70;5.03;;;;;;;22.53;44.21;94739.91;6239709;27;110978;-67
2023/06/02 11:35:27;;;;;;;6.00;5.50;;;;;;;22.51;44.24;94734.09;6228994;27;108780;-85
2023/06/02 11:38:32;;;;;;;6.73;6.13;;;;;;;22.52;44.70;94733.00;6239391;27;108870;-70
2023/06/02 11:41:36;;;;;;;10.63;6.17;;;;;;;22.51;45.73;94727.97;6239295;27;108981;-68
2023/06/02 11:44:49;;;;;;;10.73;6.40;;;;;;;22.54;45.32;94730.81;6234412;27;109262;-68
2023/06/02 11:48:05;;;;;;;7.67;6.10;;;;;;;22.56;46.02;94733.16;6234491;27;109383;-69
2023/06/02 11:51:10;;;;;;;6.10;5.60;;;;;;;22.58;45.48;94728.31;6238969;27;110175;-69
2023/06/02 11:54:13;;;;;;;7.10;6.40;;;;;;;22.54;45.33;94728.13;6239428;27;108897;-69
2023/06/02 11:57:26;;;;;;;6.67;5.97;;;;;;;22.55;45.39;94734.25;6227639;27;109214;-70
2023/06/02 12:00:34;;;;;;;6.83;5.67;;;;;;;22.52;45.35;94727.69;6238550;27;108985;-69
2023/06/02 12:03:38;;;;;;;6.13;5.53;;;;;;;22.50;45.30;94719.19;6238708;27;108998;-71
2023/06/02 12:06:46;;;;;;;6.13;5.40;;;;;;;22.51;45.10;94722.63;6238816;27;108841;-69
2023/06/02 12:09:49;;;;;;;6.57;5.93;;;;;;;22.53;46.08;94723.91;6228423;27;109340;-69
2023/06/02 12:12:53;;;;;;;5.60;5.10;;;;;;;22.51;46.12;94722.63;6238094;27;109137;-70
2023/06/02 12:16:18;;;;;;;6.53;5.33;;;;;;;22.49;45.63;94716.84;6238442;27;109903;-67
2023/06/02 12:19:22;;;;;;;6.63;5.97;;;;;;;22.50;46.00;94705.06;6228916;27;109251;-67
2023/06/02 12:22:25;;;;;;;5.70;5.20;;;;;;;22.48;46.04;94700.06;6238580;27;109390;-75
2023/06/02 12:25:29;;;;;;;8.60;6.63;;;;;;;22.54;46.82;94698.81;6238162;27;108997;-67
2023/06/02 12:28:32;;;;;;;7.17;6.57;;;;;;;22.56;47.28;94699.28;6238041;27;109076;-69
2023/06/02 12:31:37;;;;;;;6.90;6.20;;;;;;;22.56;46.67;94706.50;6227904;27;109964;-69
2023/06/02 12:34:42;;;;;;;7.27;6.70;;;;;;;22.53;46.78;94704.47;6238062;27;108778;-69
2023/06/02 12:37:45;;;;;;;8.00;7.20;;;;;;;22.55;46.85;94696.94;6238213;27;109462;-69
2023/06/02 12:40:48;;;;;;;7.67;6.97;;;;;;;22.53;46.88;94699.13;6237833;27;109029;-72
2023/06/02 12:43:51;;;;;;;6.80;6.30;;;;;;;22.55;47.11;94688.94;6227816;27;109110;-69
2023/06/02 12:46:56;;;;;;;7.33;6.73;;;;;;;22.54;47.49;94685.47;6238040;27;110080;-68
2023/06/02 12:49:59;;;;;;;7.20;6.60;;;;;;;22.51;47.91;94683.41;6213203;28;109221;-69
2023/06/02 12:53:02;;;;;;;7.53;6.87;;;;;;;22.52;47.41;94679.69;6207793;28;108984;-69
2023/06/02 12:56:06;;;;;;;6.57;5.97;;;;;;;22.53;47.82;94685.78;6207337;28;108995;-68
2023/06/02 12:59:11;;;;;;;7.13;6.43;;;;;;;22.53;47.92;94680.47;6212425;28;109002;-60
2023/06/02 13:02:16;;;;;;;6.97;6.37;;;;;;;22.52;48.25;94679.69;6212311;28;109743;-61
2023/06/02 13:05:19;;;;;;;7.93;7.27;;;;;;;22.54;48.41;94676.69;6202475;28;109031;-60
2023/06/02 13:08:23;;;;;;;6.63;6.13;;;;;;;22.52;48.69;94669.00;6212450;28;108992;-66
2023/06/02 13:11:29;;;;;;;7.53;6.93;;;;;;;22.54;48.47;94666.03;6212462;28;109422;-62
2023/06/02 13:14:32;;;;;;;7.37;6.67;;;;;;;22.58;48.08;94665.09;6212554;28;108872;-64
2023/06/02 13:17:36;;;;;;;7.10;6.50;;;;;;;22.56;48.31;94664.59;6207415;28;109006;-60
2023/06/02 13:20:40;;;;;;;7.43;6.80;;;;;;;22.55;48.61;94662.25;6237509;27;109605;-60
2023/06/02 13:23:52;;;;;;;7.77;7.07;;;;;;;22.56;48.50;94664.59;6236676;27;110015;-60
2023/06/02 13:26:56;;;;;;;7.87;7.17;;;;;;;22.55;48.75;94660.38;6232104;27;109908;-65
2023/06/02 13:29:59;;;;;;;8.07;7.27;;;;;;;22.56;48.13;94658.50;6231256;27;109893;-61
2023/06/02 13:33:05;;;;;;;7.40;6.80;;;;;;;22.58;48.80;94658.97;6236900;27;109029;-62
2023/06/02 13:36:09;;;;;;;8.50;7.70;;;;;;;22.56;48.80;94653.16;6237876;27;108853;-60
2023/06/02 13:39:13;;;;;;;6.57;6.07;;;;;;;22.57;48.63;94650.19;6227948;27;109127;-60
2023/06/02 13:42:17;;;;;;;6.87;6.20;;;;;;;22.57;47.83;94650.19;6236951;27;108808;-61
2023/06/02 13:45:20;;;;;;;7.53;6.37;;;;;;;22.56;48.15;94643.28;6236749;27;109019;-60
2023/06/02 13:48:25;;;;;;;6.57;6.07;;;;;;;22.56;47.80;94645.94;6236855;27;109494;-60
2023/06/02 13:51:28;;;;;;;6.97;6.30;;;;;;;22.59;47.72;94647.22;6226386;27;108995;-60
2023/06/02 13:54:31;;;;;;;7.03;6.43;;;;;;;22.56;47.58;94635.28;6236672;27;109025;-60
2023/06/02 13:57:36;;;;;;;6.97;6.37;;;;;;;22.55;47.50;94643.59;6236132;27;109405;-60
2023/06/02 14:00:40;;;;;;;6.50;6.00;;;;;;;22.55;47.72;94636.38;6235332;27;109985;-62
2023/06/02 14:03:45;;;;;;;7.30;6.60;;;;;;;22.56;47.80;94637.94;6229779;27;109072;-60
2023/06/02 14:06:48;;;;;;;6.47;5.97;;;;;;;22.56;47.45;94639.81;6236647;27;109098;-63
2023/06/02 14:09:51;;;;;;;6.60;5.97;;;;;;;22.55;47.32;94639.03;6236512;27;109029;-60
2023/06/02 14:12:55;;;;;;;6.40;5.70;;;;;;;22.55;46.82;94633.72;6226522;27;109452;-62
2023/06/02 14:15:58;;;;;;;6.10;5.60;;;;;;;22.54;46.93;94634.81;6236179;27;111451;-61